createdAt,value
2016-11-16T00:00:08.206Z,0
2016-11-16T00:01:21.966Z,0
2016-11-16T00:02:35.715Z,0
2016-11-16T00:03:49.451Z,0
2016-11-16T00:05:03.210Z,0
2016-11-16T00:06:16.930Z,0
2016-11-16T00:07:30.686Z,0
2016-11-16T00:08:44.391Z,0
2016-11-16T00:09:58.160Z,0
2016-11-16T00:11:10.585Z,0
2016-11-16T00:12:24.295Z,0
2016-11-16T00:13:38.091Z,0
2016-11-16T00:14:51.863Z,0
2016-11-16T00:16:05.610Z,0
2016-11-16T00:17:19.345Z,0
2016-11-16T00:18:33.042Z,0
2016-11-16T00:19:46.770Z,0
2016-11-16T00:21:00.585Z,0
2016-11-16T00:22:14.332Z,0
2016-11-16T00:23:28.318Z,0
2016-11-16T00:24:40.740Z,0
2016-11-16T00:25:53.268Z,0
2016-11-16T00:27:07.008Z,0
2016-11-16T00:28:19.478Z,0
2016-11-16T00:29:33.234Z,0
2016-11-16T00:30:45.688Z,0
2016-11-16T00:31:58.285Z,0
2016-11-16T00:33:12.291Z,0
2016-11-16T00:34:24.736Z,0
2016-11-16T00:35:37.177Z,0
2016-11-16T00:36:49.612Z,0
2016-11-16T00:38:03.330Z,0
2016-11-16T00:39:17.090Z,0
2016-11-16T00:40:29.528Z,0
2016-11-16T00:41:43.232Z,0
2016-11-16T00:42:56.934Z,0
2016-11-16T00:44:09.364Z,0
2016-11-16T00:45:23.055Z,0
2016-11-16T00:46:34.179Z,0
2016-11-16T00:47:47.885Z,0
2016-11-16T00:49:01.593Z,0
2016-11-16T00:50:14.015Z,0
2016-11-16T00:51:27.781Z,0
2016-11-16T00:52:40.223Z,0
2016-11-16T00:53:52.658Z,0
2016-11-16T00:55:06.401Z,0
2016-11-16T00:56:18.809Z,0
2016-11-16T00:57:31.227Z,0
2016-11-16T00:58:45.017Z,0
2016-11-16T00:59:58.748Z,0
2016-11-16T01:01:12.499Z,0
2016-11-16T01:02:24.927Z,0
2016-11-16T01:03:37.436Z,0
2016-11-16T01:04:49.981Z,0
2016-11-16T01:06:03.683Z,0
2016-11-16T01:07:17.418Z,0
2016-11-16T01:08:31.139Z,0
2016-11-16T01:09:44.863Z,0
2016-11-16T01:10:58.595Z,0
2016-11-16T01:12:12.291Z,0
2016-11-16T01:13:25.984Z,0
2016-11-16T01:14:39.706Z,0
2016-11-16T01:15:53.415Z,0
2016-11-16T01:17:05.821Z,0
2016-11-16T01:18:19.524Z,0
2016-11-16T01:19:33.222Z,0
2016-11-16T01:20:46.934Z,0
2016-11-16T01:21:58.086Z,0
2016-11-16T01:23:11.805Z,0
2016-11-16T01:24:24.218Z,0
2016-11-16T01:25:36.637Z,0
2016-11-16T01:26:50.361Z,0
2016-11-16T01:28:04.061Z,0
2016-11-16T01:29:17.860Z,0
2016-11-16T01:30:30.312Z,0
2016-11-16T01:31:44.160Z,0
2016-11-16T01:32:55.286Z,0
2016-11-16T01:34:07.697Z,0
2016-11-16T01:35:21.424Z,0
2016-11-16T01:36:35.126Z,0
2016-11-16T01:37:47.565Z,0
2016-11-16T01:39:00.070Z,0
2016-11-16T01:40:13.804Z,0
2016-11-16T01:41:26.219Z,0
2016-11-16T01:42:38.658Z,0
2016-11-16T01:43:52.372Z,0
2016-11-16T01:45:06.064Z,0
2016-11-16T01:46:19.787Z,0
2016-11-16T01:47:32.300Z,0
2016-11-16T01:48:44.736Z,0
2016-11-16T01:49:58.444Z,0
2016-11-16T01:51:12.128Z,0
2016-11-16T01:52:25.846Z,0
2016-11-16T01:53:38.518Z,0
2016-11-16T01:54:50.951Z,0
2016-11-16T01:56:04.666Z,0
2016-11-16T01:57:18.478Z,0
2016-11-16T01:58:32.169Z,0
2016-11-16T01:59:43.295Z,0
2016-11-16T02:00:54.538Z,0
2016-11-16T02:02:08.238Z,0
2016-11-16T02:03:21.940Z,0
2016-11-16T02:04:34.358Z,0
2016-11-16T02:05:48.077Z,0
2016-11-16T02:07:00.480Z,0
2016-11-16T02:08:43.777Z,0
2016-11-16T02:09:57.560Z,0
2016-11-16T02:11:11.255Z,0
2016-11-16T02:12:22.386Z,0
2016-11-16T02:13:36.162Z,0
2016-11-16T02:14:48.563Z,0
2016-11-16T02:16:02.259Z,0
2016-11-16T02:17:14.737Z,0
2016-11-16T02:18:27.148Z,0
2016-11-16T02:19:39.565Z,0
2016-11-16T02:20:53.511Z,0
2016-11-16T02:22:07.220Z,0
2016-11-16T02:23:20.935Z,0
2016-11-16T02:24:34.627Z,0
2016-11-16T02:25:47.035Z,0
2016-11-16T02:27:00.721Z,0
2016-11-16T02:28:14.478Z,0
2016-11-16T02:29:28.177Z,0
2016-11-16T02:30:40.645Z,0
2016-11-16T02:31:54.428Z,0
2016-11-16T02:33:08.205Z,0
2016-11-16T02:34:21.917Z,0
2016-11-16T02:35:35.650Z,0
2016-11-16T02:36:49.327Z,0
2016-11-16T02:38:03.019Z,0
2016-11-16T02:39:15.450Z,0
2016-11-16T02:40:27.867Z,0
2016-11-16T02:41:41.620Z,0
2016-11-16T02:42:55.350Z,0
2016-11-16T02:44:07.747Z,0
2016-11-16T02:45:20.178Z,0
2016-11-16T02:46:32.606Z,0
2016-11-16T02:47:46.313Z,0
2016-11-16T02:49:00.028Z,0
2016-11-16T02:50:13.726Z,0
2016-11-16T02:51:27.429Z,0
2016-11-16T02:52:41.269Z,0
2016-11-16T02:53:52.446Z,0
2016-11-16T02:55:06.236Z,0
2016-11-16T02:56:19.930Z,0
2016-11-16T02:57:32.386Z,0
2016-11-16T02:58:44.816Z,0
2016-11-16T02:59:57.246Z,0
2016-11-16T03:01:09.655Z,0
2016-11-16T03:02:22.109Z,0
2016-11-16T03:03:34.531Z,0
2016-11-16T03:04:48.269Z,0
2016-11-16T03:06:00.691Z,0
2016-11-16T03:07:14.403Z,0
2016-11-16T03:08:28.115Z,0
2016-11-16T03:09:41.818Z,0
2016-11-16T03:10:53.084Z,0
2016-11-16T03:12:06.768Z,0
2016-11-16T03:13:20.456Z,0
2016-11-16T03:14:31.579Z,0
2016-11-16T03:15:45.287Z,0
2016-11-16T03:16:59.046Z,0
2016-11-16T03:18:11.509Z,0
2016-11-16T03:19:25.225Z,0
2016-11-16T03:20:38.929Z,0
2016-11-16T03:21:52.662Z,0
2016-11-16T03:23:06.351Z,0
2016-11-16T03:24:18.749Z,0
2016-11-16T03:25:32.437Z,0
2016-11-16T03:26:46.140Z,0
2016-11-16T03:28:00.056Z,0
2016-11-16T03:29:12.510Z,0
2016-11-16T03:30:26.230Z,0
2016-11-16T03:31:40.152Z,0
2016-11-16T03:32:53.910Z,0
2016-11-16T03:34:07.603Z,0
2016-11-16T03:35:20.019Z,0
2016-11-16T03:36:32.431Z,0
2016-11-16T03:37:46.126Z,0
2016-11-16T03:38:59.867Z,0
2016-11-16T03:40:12.306Z,0
2016-11-16T03:41:26.251Z,0
2016-11-16T03:42:37.383Z,0
2016-11-16T03:43:51.076Z,0
2016-11-16T03:45:04.814Z,0
2016-11-16T03:46:18.520Z,0
2016-11-16T03:47:32.251Z,0
2016-11-16T03:48:45.946Z,0
2016-11-16T03:49:59.646Z,0
2016-11-16T03:51:13.387Z,0
2016-11-16T03:52:27.129Z,0
2016-11-16T03:53:40.823Z,0
2016-11-16T03:54:54.557Z,0
2016-11-16T03:56:08.243Z,0
2016-11-16T03:57:21.932Z,0
2016-11-16T03:58:35.835Z,0
2016-11-16T03:59:49.759Z,0
2016-11-16T04:01:03.680Z,0
2016-11-16T04:02:17.385Z,0
2016-11-16T04:03:29.799Z,0
2016-11-16T04:04:43.764Z,0
2016-11-16T04:05:56.195Z,0
2016-11-16T04:07:09.888Z,0
2016-11-16T04:08:23.577Z,0
2016-11-16T04:09:37.293Z,0
2016-11-16T04:10:51.079Z,0
2016-11-16T04:12:03.588Z,0
2016-11-16T04:13:16.090Z,0
2016-11-16T04:14:29.796Z,0
2016-11-16T04:15:43.500Z,0
2016-11-16T04:16:57.202Z,0
2016-11-16T04:18:10.888Z,0
2016-11-16T04:19:23.298Z,0
2016-11-16T04:20:36.990Z,0
2016-11-16T04:21:50.700Z,0
2016-11-16T04:23:35.406Z,0
2016-11-16T04:24:49.366Z,0
2016-11-16T04:26:03.268Z,0
2016-11-16T04:27:16.961Z,0
2016-11-16T04:28:29.372Z,0
2016-11-16T04:29:43.307Z,0
2016-11-16T04:30:57.022Z,0
2016-11-16T04:32:10.737Z,0
2016-11-16T04:33:24.469Z,0
2016-11-16T04:34:38.157Z,0
2016-11-16T04:35:51.921Z,0
2016-11-16T04:37:05.621Z,0
2016-11-16T04:38:19.544Z,0
2016-11-16T04:39:33.270Z,0
2016-11-16T04:40:46.961Z,0
2016-11-16T04:42:00.648Z,0
2016-11-16T04:43:14.332Z,0
2016-11-16T04:44:26.758Z,0
2016-11-16T04:45:40.694Z,0
2016-11-16T04:46:53.122Z,0
2016-11-16T04:48:05.667Z,0
2016-11-16T04:49:18.085Z,0
2016-11-16T04:50:31.769Z,0
2016-11-16T04:51:45.627Z,0
2016-11-16T04:52:59.356Z,0
2016-11-16T04:54:13.054Z,0
2016-11-16T04:55:26.755Z,0
2016-11-16T04:56:40.444Z,0
2016-11-16T04:57:54.151Z,0
2016-11-16T04:59:07.843Z,0
2016-11-16T05:00:21.532Z,0
2016-11-16T05:01:34.185Z,0
2016-11-16T05:02:47.882Z,0
2016-11-16T05:04:01.586Z,0
2016-11-16T05:05:15.277Z,0
2016-11-16T05:06:28.963Z,0
2016-11-16T05:07:42.679Z,0
2016-11-16T05:08:56.400Z,0
2016-11-16T05:10:10.105Z,0
2016-11-16T05:11:22.559Z,0
2016-11-16T05:12:36.253Z,0
2016-11-16T05:13:49.961Z,0
2016-11-16T05:15:03.670Z,0
2016-11-16T05:16:17.393Z,0
2016-11-16T05:17:31.104Z,0
2016-11-16T05:18:44.845Z,0
2016-11-16T05:19:58.551Z,0
2016-11-16T05:21:12.259Z,0
2016-11-16T05:22:25.959Z,0
2016-11-16T05:23:39.696Z,0
2016-11-16T05:24:53.399Z,0
2016-11-16T05:26:05.821Z,0
2016-11-16T05:27:19.562Z,0
2016-11-16T05:28:33.255Z,0
2016-11-16T05:29:46.983Z,0
2016-11-16T05:31:00.688Z,0
2016-11-16T05:32:14.385Z,0
2016-11-16T05:33:28.089Z,0
2016-11-16T05:34:41.787Z,0
2016-11-16T05:35:54.321Z,0
2016-11-16T05:37:08.027Z,0
2016-11-16T05:38:20.465Z,0
2016-11-16T05:39:34.161Z,0
2016-11-16T05:40:47.883Z,0
2016-11-16T05:42:01.715Z,0
2016-11-16T05:43:15.432Z,0
2016-11-16T05:44:29.134Z,0
2016-11-16T05:45:42.855Z,0
2016-11-16T05:46:54.027Z,0
2016-11-16T05:48:06.462Z,0
2016-11-16T05:49:20.163Z,0
2016-11-16T05:50:33.869Z,0
2016-11-16T05:51:47.567Z,0
2016-11-16T05:53:01.267Z,0
2016-11-16T05:54:13.726Z,0
2016-11-16T05:55:27.414Z,0
2016-11-16T05:56:41.136Z,0
2016-11-16T05:57:54.866Z,0
2016-11-16T05:59:08.600Z,0
2016-11-16T06:00:22.304Z,0
2016-11-16T06:01:36.015Z,0
2016-11-16T06:02:49.744Z,0
2016-11-16T06:04:03.471Z,0
2016-11-16T06:05:17.352Z,4
2016-11-16T06:06:31.046Z,4
2016-11-16T06:07:44.744Z,0
2016-11-16T06:08:58.463Z,4
2016-11-16T06:10:12.214Z,8
2016-11-16T06:11:25.913Z,8
2016-11-16T06:12:39.628Z,8
2016-11-16T06:13:53.328Z,8
2016-11-16T06:15:05.796Z,12
2016-11-16T06:16:19.529Z,16
2016-11-16T06:17:31.943Z,20
2016-11-16T06:18:45.636Z,24
2016-11-16T06:19:59.335Z,28
2016-11-16T06:21:13.031Z,32
2016-11-16T06:22:26.743Z,36
2016-11-16T06:23:40.555Z,44
2016-11-16T06:24:54.340Z,56
2016-11-16T06:26:08.065Z,64
2016-11-16T06:27:21.766Z,76
2016-11-16T06:28:34.167Z,92
2016-11-16T06:29:46.590Z,104
2016-11-16T06:31:00.299Z,124
2016-11-16T06:32:13.991Z,140
2016-11-16T06:33:27.697Z,160
2016-11-16T06:34:41.407Z,172
2016-11-16T06:35:55.128Z,180
2016-11-16T06:37:08.828Z,200
2016-11-16T06:38:22.595Z,212
2016-11-16T06:39:36.300Z,220
2016-11-16T06:40:48.780Z,264
2016-11-16T06:42:02.499Z,304
2016-11-16T06:43:16.201Z,344
2016-11-16T06:44:29.923Z,380
2016-11-16T06:45:43.616Z,416
2016-11-16T06:46:57.327Z,464
2016-11-16T06:48:11.026Z,492
2016-11-16T06:49:24.733Z,512
2016-11-16T06:50:38.461Z,588
2016-11-16T06:51:52.178Z,664
2016-11-16T06:53:05.888Z,736
2016-11-16T06:54:19.761Z,752
2016-11-16T06:55:33.463Z,780
2016-11-16T06:56:47.153Z,808
2016-11-16T06:58:00.854Z,948
2016-11-16T06:59:14.563Z,1056
2016-11-16T07:00:28.278Z,1124
2016-11-16T07:01:41.989Z,1188
2016-11-16T07:02:55.728Z,1296
2016-11-16T07:04:08.150Z,1352
2016-11-16T07:05:21.848Z,1368
2016-11-16T07:06:35.603Z,1412
2016-11-16T07:07:49.332Z,1528
2016-11-16T07:09:03.079Z,1600
2016-11-16T07:10:16.791Z,1676
2016-11-16T07:11:30.497Z,1700
2016-11-16T07:12:44.209Z,1748
2016-11-16T07:13:58.189Z,1744
2016-11-16T07:15:11.907Z,1672
2016-11-16T07:16:25.658Z,1624
2016-11-16T07:17:39.409Z,1656
2016-11-16T07:18:53.110Z,1764
2016-11-16T07:20:06.864Z,1784
2016-11-16T07:21:20.789Z,1948
2016-11-16T07:22:34.497Z,1996
2016-11-16T07:23:48.244Z,2016
2016-11-16T07:25:01.947Z,2124
2016-11-16T07:26:15.669Z,2180
2016-11-16T07:27:29.396Z,2196
2016-11-16T07:28:43.090Z,2152
2016-11-16T07:29:56.881Z,2176
2016-11-16T07:31:09.325Z,2216
2016-11-16T07:32:23.043Z,2228
2016-11-16T07:33:36.741Z,2548
2016-11-16T07:34:50.517Z,2788
2016-11-16T07:36:04.231Z,2908
2016-11-16T07:37:17.936Z,2836
2016-11-16T07:38:31.647Z,2964
2016-11-16T07:39:45.394Z,2948
2016-11-16T07:40:59.101Z,2940
2016-11-16T07:42:12.987Z,3068
2016-11-16T07:43:26.685Z,3312
2016-11-16T07:44:40.378Z,3356
2016-11-16T07:45:54.093Z,3232
2016-11-16T07:47:07.783Z,3236
2016-11-16T07:48:21.475Z,3064
2016-11-16T07:49:34.032Z,2784
2016-11-16T07:50:47.720Z,2512
2016-11-16T07:52:01.540Z,2436
2016-11-16T07:53:15.244Z,2452
2016-11-16T07:54:28.984Z,2608
2016-11-16T07:55:41.420Z,2696
2016-11-16T07:56:55.159Z,2740
2016-11-16T07:58:08.877Z,3004
2016-11-16T07:59:21.306Z,3268
2016-11-16T08:00:33.717Z,3228
2016-11-16T08:01:47.415Z,3456
2016-11-16T08:03:01.116Z,3824
2016-11-16T08:04:14.836Z,4604
2016-11-16T08:05:28.555Z,5520
2016-11-16T08:06:42.270Z,6164
2016-11-16T08:07:53.387Z,6844
2016-11-16T08:09:05.804Z,7116
2016-11-16T08:10:19.516Z,6944
2016-11-16T08:11:33.223Z,7312
2016-11-16T08:12:46.919Z,6708
2016-11-16T08:14:00.650Z,8520
2016-11-16T08:15:13.189Z,6308
2016-11-16T08:16:25.611Z,6944
2016-11-16T08:17:34.162Z,8136
2016-11-16T08:18:47.873Z,12972
2016-11-16T08:20:00.292Z,8664
2016-11-16T08:21:14.081Z,8648
2016-11-16T08:22:25.231Z,10704
2016-11-16T08:23:38.938Z,10356
2016-11-16T08:24:51.403Z,10000
2016-11-16T08:26:05.114Z,10120
2016-11-16T08:27:18.817Z,10800
2016-11-16T08:28:32.530Z,10212
2016-11-16T08:29:44.961Z,10224
2016-11-16T08:30:57.367Z,8448
2016-11-16T08:32:11.077Z,8572
2016-11-16T08:33:24.794Z,9884
2016-11-16T08:34:37.311Z,10936
2016-11-16T08:35:48.688Z,11932
2016-11-16T08:37:02.388Z,12092
2016-11-16T08:38:14.839Z,12396
2016-11-16T08:39:28.587Z,10820
2016-11-16T08:40:42.361Z,10464
2016-11-16T08:41:53.764Z,11320
2016-11-16T08:43:06.191Z,11532
2016-11-16T08:44:20.049Z,11148
2016-11-16T08:45:33.761Z,10812
2016-11-16T08:46:47.499Z,11704
2016-11-16T08:48:01.210Z,13460
2016-11-16T08:49:14.923Z,12896
2016-11-16T08:50:28.638Z,14792
2016-11-16T08:51:42.319Z,12572
2016-11-16T08:52:54.864Z,9732
2016-11-16T08:54:08.584Z,7352
2016-11-16T08:55:21.009Z,6732
2016-11-16T08:56:33.466Z,7208
2016-11-16T08:57:47.170Z,7820
2016-11-16T08:58:59.621Z,7968
2016-11-16T09:00:12.164Z,8536
2016-11-16T09:01:25.863Z,8820
2016-11-16T09:02:39.562Z,9440
2016-11-16T09:03:53.276Z,9976
2016-11-16T09:05:06.967Z,10868
2016-11-16T09:06:20.661Z,11576
2016-11-16T09:07:33.115Z,13216
2016-11-16T09:08:45.599Z,14992
2016-11-16T09:09:59.544Z,15968
2016-11-16T09:11:13.495Z,15236
2016-11-16T09:12:26.140Z,14852
2016-11-16T09:13:39.844Z,14100
2016-11-16T09:14:52.283Z,14608
2016-11-16T09:16:06.013Z,14276
2016-11-16T09:17:19.722Z,13488
2016-11-16T09:18:32.365Z,12072
2016-11-16T09:19:46.071Z,10600
2016-11-16T09:20:59.765Z,9880
2016-11-16T09:22:13.470Z,10968
2016-11-16T09:23:27.181Z,10900
2016-11-16T09:24:39.714Z,12092
2016-11-16T09:25:53.577Z,11804
2016-11-16T09:27:07.310Z,11504
2016-11-16T09:28:21.028Z,12020
2016-11-16T09:29:32.155Z,12700
2016-11-16T09:30:43.288Z,12152
2016-11-16T09:31:56.988Z,11444
2016-11-16T09:33:09.436Z,11504
2016-11-16T09:34:23.144Z,16064
2016-11-16T09:35:36.846Z,11728
2016-11-16T09:36:47.965Z,11348
2016-11-16T09:38:01.666Z,12820
2016-11-16T09:39:14.245Z,16448
2016-11-16T09:40:28.011Z,17408
2016-11-16T09:41:41.722Z,14712
2016-11-16T09:42:54.161Z,12312
2016-11-16T09:44:07.992Z,10284
2016-11-16T09:45:20.420Z,9456
2016-11-16T09:46:34.142Z,8688
2016-11-16T09:47:47.843Z,7776
2016-11-16T09:49:01.546Z,6592
2016-11-16T09:50:15.376Z,5528
2016-11-16T09:51:29.099Z,5420
2016-11-16T09:52:42.803Z,5464
2016-11-16T09:53:56.497Z,5416
2016-11-16T09:55:10.263Z,5016
2016-11-16T09:56:23.988Z,4692
2016-11-16T09:57:37.710Z,4596
2016-11-16T09:58:50.229Z,4576
2016-11-16T10:00:03.938Z,4780
2016-11-16T10:01:16.412Z,5640
2016-11-16T10:02:30.186Z,6356
2016-11-16T10:03:43.927Z,6344
2016-11-16T10:04:57.681Z,6568
2016-11-16T10:06:11.406Z,7136
2016-11-16T10:07:25.132Z,7488
2016-11-16T10:08:36.251Z,7868
2016-11-16T10:09:49.962Z,8352
2016-11-16T10:11:03.668Z,8632
2016-11-16T10:12:16.631Z,8068
2016-11-16T10:13:30.573Z,6876
2016-11-16T10:14:44.534Z,6272
2016-11-16T10:15:58.253Z,6636
2016-11-16T10:17:10.674Z,7352
2016-11-16T10:18:23.077Z,7856
2016-11-16T10:19:37.008Z,8100
2016-11-16T10:20:50.736Z,8528
2016-11-16T10:22:04.436Z,10720
2016-11-16T10:23:18.149Z,12440
2016-11-16T10:24:32.090Z,11600
2016-11-16T10:25:44.526Z,10704
2016-11-16T10:26:58.228Z,9340
2016-11-16T10:28:11.969Z,7216
2016-11-16T10:29:25.676Z,5528
2016-11-16T10:30:36.851Z,5260
2016-11-16T10:31:49.286Z,5104
2016-11-16T10:33:01.774Z,5100
2016-11-16T10:34:14.357Z,5120
2016-11-16T10:35:28.081Z,4468
2016-11-16T10:36:41.789Z,3744
2016-11-16T10:37:52.928Z,3536
2016-11-16T10:39:05.370Z,3356
2016-11-16T10:40:19.105Z,3236
2016-11-16T10:41:32.827Z,3152
2016-11-16T10:42:46.528Z,3124
2016-11-16T10:44:00.525Z,3388
2016-11-16T10:45:14.254Z,3808
2016-11-16T10:46:27.992Z,4104
2016-11-16T10:47:41.709Z,4300
2016-11-16T10:48:55.418Z,4364
2016-11-16T10:50:09.160Z,4404
2016-11-16T10:51:22.930Z,4224
2016-11-16T10:52:36.650Z,3900
2016-11-16T10:53:49.073Z,3668
2016-11-16T10:55:00.202Z,3384
2016-11-16T10:56:13.908Z,3388
2016-11-16T10:57:27.617Z,3340
2016-11-16T10:58:41.319Z,3116
2016-11-16T10:59:53.758Z,3208
2016-11-16T11:01:07.542Z,2880
2016-11-16T11:02:21.265Z,3304
2016-11-16T11:03:33.722Z,2792
2016-11-16T11:04:46.208Z,2728
2016-11-16T11:05:59.931Z,2684
2016-11-16T11:07:13.713Z,2580
2016-11-16T11:08:27.425Z,2768
2016-11-16T11:09:41.150Z,2464
2016-11-16T11:10:55.092Z,2284
2016-11-16T11:12:07.505Z,2248
2016-11-16T11:13:21.223Z,2288
2016-11-16T11:14:33.643Z,2140
2016-11-16T11:15:47.362Z,2652
2016-11-16T11:16:58.512Z,2728
2016-11-16T11:18:10.958Z,2588
2016-11-16T11:19:24.696Z,2460
2016-11-16T11:20:37.120Z,2672
2016-11-16T11:21:49.928Z,2592
2016-11-16T11:23:02.350Z,2624
2016-11-16T11:24:16.353Z,2520
2016-11-16T11:25:28.795Z,2316
2016-11-16T11:26:41.246Z,2264
2016-11-16T11:27:53.672Z,2532
2016-11-16T11:29:07.481Z,2364
2016-11-16T11:30:21.315Z,2448
2016-11-16T11:31:35.058Z,2460
2016-11-16T11:32:48.776Z,2512
2016-11-16T11:34:01.243Z,2792
2016-11-16T11:35:13.681Z,2416
2016-11-16T11:36:27.428Z,2256
2016-11-16T11:37:41.147Z,2436
2016-11-16T11:38:54.846Z,2608
2016-11-16T11:40:08.546Z,2564
2016-11-16T11:41:22.264Z,2500
2016-11-16T11:42:35.971Z,2584
2016-11-16T11:43:48.390Z,2208
2016-11-16T11:45:02.124Z,2024
2016-11-16T11:46:15.848Z,2088
2016-11-16T11:47:29.554Z,1748
2016-11-16T11:48:43.288Z,1720
2016-11-16T11:49:56.997Z,1728
2016-11-16T11:51:10.693Z,1788
2016-11-16T11:52:23.130Z,1588
2016-11-16T11:53:36.883Z,1788
2016-11-16T11:54:49.323Z,1568
2016-11-16T11:56:03.045Z,1760
2016-11-16T11:57:16.778Z,1948
2016-11-16T11:58:30.513Z,2156
2016-11-16T11:59:41.631Z,2000
2016-11-16T12:00:55.373Z,2136
2016-11-16T12:02:09.120Z,2208
2016-11-16T12:03:21.609Z,2264
2016-11-16T12:04:32.771Z,2244
2016-11-16T12:05:46.471Z,2188
2016-11-16T12:07:00.200Z,2240
2016-11-16T12:08:12.632Z,2076
2016-11-16T12:09:26.344Z,2376
2016-11-16T12:10:40.285Z,2336
2016-11-16T12:11:54.011Z,2384
2016-11-16T12:13:05.178Z,2324
2016-11-16T12:14:18.910Z,2192
2016-11-16T12:15:32.609Z,2228
2016-11-16T12:16:45.270Z,2148
2016-11-16T12:17:59.014Z,2164
2016-11-16T12:19:12.737Z,2236
2016-11-16T12:20:26.441Z,2220
2016-11-16T12:21:39.103Z,2168
2016-11-16T12:22:52.823Z,2144
2016-11-16T12:24:05.259Z,2092
2016-11-16T12:25:17.840Z,2072
2016-11-16T12:26:31.983Z,2124
2016-11-16T12:27:45.682Z,2096
2016-11-16T12:28:59.401Z,2252
2016-11-16T12:30:10.563Z,2268
2016-11-16T12:31:21.735Z,2120
2016-11-16T12:32:35.470Z,1880
2016-11-16T12:33:49.181Z,1708
2016-11-16T12:35:00.335Z,1812
2016-11-16T12:36:14.048Z,2368
2016-11-16T12:37:26.491Z,2388
2016-11-16T12:38:38.956Z,1948
2016-11-16T12:39:52.672Z,2388
2016-11-16T12:41:05.182Z,2116
2016-11-16T12:42:18.894Z,2040
2016-11-16T12:43:32.623Z,2336
2016-11-16T12:44:46.565Z,2080
2016-11-16T12:45:57.699Z,2108
2016-11-16T12:47:11.426Z,1816
2016-11-16T12:48:23.862Z,2304
2016-11-16T12:49:37.810Z,2536
2016-11-16T12:50:51.617Z,2212
2016-11-16T12:52:05.575Z,2028
2016-11-16T12:53:18.131Z,1668
2016-11-16T12:54:30.601Z,1540
2016-11-16T12:55:43.168Z,1644
2016-11-16T12:56:55.737Z,1976
2016-11-16T12:58:09.448Z,1892
2016-11-16T12:59:23.196Z,1896
2016-11-16T13:00:36.957Z,2532
2016-11-16T13:01:49.466Z,2920
2016-11-16T13:03:03.403Z,2816
2016-11-16T13:04:15.830Z,3244
2016-11-16T13:05:29.575Z,3176
2016-11-16T13:06:42.127Z,2524
2016-11-16T13:07:55.835Z,2372
2016-11-16T13:09:09.703Z,2352
2016-11-16T13:10:23.411Z,2356
2016-11-16T13:11:37.164Z,2168
2016-11-16T13:12:49.850Z,1932
2016-11-16T13:14:03.571Z,2092
2016-11-16T13:15:16.152Z,2256
2016-11-16T13:16:29.863Z,2456
2016-11-16T13:17:43.645Z,2688
2016-11-16T13:18:56.155Z,2720
2016-11-16T13:20:09.856Z,2700
2016-11-16T13:21:23.583Z,2540
2016-11-16T13:22:37.383Z,2304
2016-11-16T13:23:51.092Z,2624
2016-11-16T13:25:04.949Z,2676
2016-11-16T13:26:17.373Z,2472
2016-11-16T13:27:31.322Z,2704
2016-11-16T13:28:43.758Z,2972
2016-11-16T13:29:56.211Z,2644
2016-11-16T13:31:08.649Z,2944
2016-11-16T13:32:22.373Z,2688
2016-11-16T13:33:34.828Z,2488
2016-11-16T13:34:48.556Z,2380
2016-11-16T13:36:02.270Z,2712
2016-11-16T13:37:15.983Z,2996
2016-11-16T13:38:28.515Z,3584
2016-11-16T13:39:42.239Z,3720
2016-11-16T13:40:55.994Z,3932
2016-11-16T13:42:09.687Z,4208
2016-11-16T13:43:22.167Z,4800
2016-11-16T13:44:36.047Z,5784
2016-11-16T13:45:48.467Z,6808
2016-11-16T13:47:02.179Z,6412
2016-11-16T13:48:15.919Z,5944
2016-11-16T13:49:29.768Z,4968
2016-11-16T13:50:43.506Z,4428
2016-11-16T13:51:54.639Z,4812
2016-11-16T13:53:07.089Z,4716
2016-11-16T13:54:19.529Z,4712
2016-11-16T13:55:33.325Z,4896
2016-11-16T13:56:47.046Z,4500
2016-11-16T13:58:00.793Z,4336
2016-11-16T13:59:14.506Z,4428
2016-11-16T14:00:28.215Z,4432
2016-11-16T14:01:39.357Z,4796
2016-11-16T14:02:51.788Z,5080
2016-11-16T14:04:05.738Z,5428
2016-11-16T14:05:17.114Z,6112
2016-11-16T14:06:30.815Z,6160
2016-11-16T14:07:44.531Z,5804
2016-11-16T14:08:58.303Z,5800
2016-11-16T14:10:12.191Z,5756
2016-11-16T14:11:24.649Z,5684
2016-11-16T14:12:37.120Z,5632
2016-11-16T14:13:49.552Z,5468
2016-11-16T14:15:02.002Z,5188
2016-11-16T14:16:13.142Z,4964
2016-11-16T14:17:26.860Z,4704
2016-11-16T14:18:40.598Z,4408
2016-11-16T14:19:54.314Z,4264
2016-11-16T14:21:08.044Z,4144
2016-11-16T14:22:21.751Z,3996
2016-11-16T14:23:34.473Z,3884
2016-11-16T14:24:46.898Z,3644
2016-11-16T14:26:00.755Z,3452
2016-11-16T14:27:14.473Z,3156
2016-11-16T14:28:27.210Z,2868
2016-11-16T14:29:40.931Z,2576
2016-11-16T14:30:54.655Z,2312
2016-11-16T14:32:05.791Z,2092
2016-11-16T14:33:19.505Z,1984
2016-11-16T14:34:33.225Z,1832
2016-11-16T14:35:46.936Z,1568
2016-11-16T14:37:00.674Z,1740
2016-11-16T14:38:14.435Z,2316
2016-11-16T14:39:28.168Z,2680
2016-11-16T14:40:42.023Z,2640
2016-11-16T14:41:55.755Z,2672
2016-11-16T14:43:09.548Z,2724
2016-11-16T14:44:22.157Z,2764
2016-11-16T14:45:34.610Z,2580
2016-11-16T14:46:48.621Z,2440
2016-11-16T14:48:01.075Z,2280
2016-11-16T14:49:13.528Z,2128
2016-11-16T14:50:27.258Z,2000
2016-11-16T14:51:41.029Z,1888
2016-11-16T14:52:54.806Z,1772
2016-11-16T14:54:08.528Z,1628
2016-11-16T14:55:22.318Z,1452
2016-11-16T14:56:34.746Z,1324
2016-11-16T14:57:47.169Z,1188
2016-11-16T14:58:59.620Z,1040
2016-11-16T15:00:10.819Z,860
2016-11-16T15:01:24.567Z,688
2016-11-16T15:02:38.312Z,580
2016-11-16T15:03:52.058Z,520
2016-11-16T15:05:04.517Z,424
2016-11-16T15:06:17.150Z,356
2016-11-16T15:07:30.937Z,292
2016-11-16T15:08:44.699Z,232
2016-11-16T15:09:58.426Z,224
2016-11-16T15:11:12.164Z,244
2016-11-16T15:12:26.135Z,200
2016-11-16T15:13:39.894Z,164
2016-11-16T15:14:53.646Z,160
2016-11-16T15:16:07.400Z,140
2016-11-16T15:17:21.182Z,112
2016-11-16T15:18:35.051Z,88
2016-11-16T15:19:48.825Z,72
2016-11-16T15:21:02.563Z,56
2016-11-16T15:22:16.332Z,32
2016-11-16T15:23:28.762Z,32
2016-11-16T15:24:42.503Z,32
2016-11-16T15:25:56.282Z,32
2016-11-16T15:27:10.047Z,32
2016-11-16T15:28:24.018Z,40
2016-11-16T15:29:36.521Z,36
2016-11-16T15:30:50.242Z,36
2016-11-16T15:32:04.245Z,32
2016-11-16T15:33:16.716Z,24
2016-11-16T15:34:29.230Z,20
2016-11-16T15:35:43.005Z,20
2016-11-16T15:36:56.885Z,16
2016-11-16T15:38:10.635Z,16
2016-11-16T15:39:23.119Z,12
2016-11-16T15:40:36.863Z,12
2016-11-16T15:41:50.625Z,12
2016-11-16T15:43:03.087Z,8
2016-11-16T15:44:15.562Z,8
2016-11-16T15:45:28.046Z,8
2016-11-16T15:46:41.861Z,8
2016-11-16T15:47:55.683Z,4
2016-11-16T15:49:08.194Z,4
2016-11-16T15:50:21.985Z,0
2016-11-16T15:51:34.432Z,4
2016-11-16T15:52:48.362Z,4
2016-11-16T15:54:02.111Z,4
2016-11-16T15:55:15.942Z,0
2016-11-16T15:56:29.742Z,0
2016-11-16T15:57:42.201Z,0
2016-11-16T15:58:53.343Z,0
2016-11-16T16:00:07.067Z,0
2016-11-16T16:01:20.807Z,0
2016-11-16T16:02:34.545Z,0
2016-11-16T16:03:48.391Z,0
2016-11-16T16:05:02.429Z,0
2016-11-16T16:06:16.396Z,0
2016-11-16T16:07:28.955Z,0
2016-11-16T16:08:42.721Z,0
2016-11-16T16:09:56.448Z,0
2016-11-16T16:11:10.164Z,0
2016-11-16T16:12:22.619Z,0
2016-11-16T16:13:36.724Z,0
2016-11-16T16:14:50.467Z,0
2016-11-16T16:16:02.989Z,0
2016-11-16T16:17:16.746Z,0
2016-11-16T16:18:30.487Z,0
2016-11-16T16:19:44.262Z,0
2016-11-16T16:20:58.011Z,0
2016-11-16T16:22:09.224Z,0
2016-11-16T16:23:23.030Z,0
2016-11-16T16:24:36.813Z,0
2016-11-16T16:25:50.569Z,0
2016-11-16T16:27:03.050Z,0
2016-11-16T16:28:15.536Z,0
2016-11-16T16:29:27.991Z,0
2016-11-16T16:30:40.432Z,0
2016-11-16T16:31:52.890Z,0
2016-11-16T16:33:04.110Z,0
2016-11-16T16:34:17.838Z,0
2016-11-16T16:35:31.640Z,0
2016-11-16T16:36:45.407Z,0
2016-11-16T16:37:59.133Z,0
2016-11-16T16:39:12.896Z,0
2016-11-16T16:40:25.436Z,0
2016-11-16T16:41:39.214Z,0
2016-11-16T16:42:52.998Z,0
2016-11-16T16:44:05.593Z,0
2016-11-16T16:45:19.463Z,0
2016-11-16T16:46:33.211Z,0
2016-11-16T16:47:46.970Z,0
2016-11-16T16:48:59.635Z,0
2016-11-16T16:50:13.420Z,0
2016-11-16T16:51:27.160Z,0
2016-11-16T16:52:39.712Z,0
2016-11-16T16:53:53.514Z,0
2016-11-16T16:55:06.022Z,0
2016-11-16T16:56:19.773Z,0
2016-11-16T16:57:33.480Z,0
2016-11-16T16:58:46.245Z,0
2016-11-16T16:59:58.819Z,0
2016-11-16T17:01:11.251Z,0
2016-11-16T17:02:24.981Z,0
2016-11-16T17:03:38.841Z,0